Time;durP1;ratioP1;P1;durP2;ratioP2;P2;SDS_P1;SDS_P2;PMS_P1;PMS_P2;Temp;Humidity;BMP_temperature;BMP_pressure;BME280_temperature;BME280_humidity;BME280_pressure;Samples;Min_cycle;Max_cycle;Signal;HPM_P1;HPM_P2
2022/01/14 00:00:54;;;;;;;;;;;;;;;;;;5016798;28;19909;-20
2022/01/14 00:03:20;;;;;;;;;;;;;;;;;;5016494;28;19925;-19
2022/01/14 00:05:46;;;;;;;;;;;;;;;;;;5016752;28;19909;-19
2022/01/14 00:08:12;;;;;;;;;;;;;;;;;;5016614;28;19920;-20
2022/01/14 00:10:40;;;;;;;;;;;;;;;;;;5016672;28;19917;-19
2022/01/14 00:13:16;;;;;;;;;;;;;;;;;;5016747;28;19996;-19
2022/01/14 00:15:42;;;;;;;;;;;;;;;;;;5016882;28;19968;-20
2022/01/14 00:18:08;;;;;;;;;;;;;;;;;;5015545;28;19913;-20
2022/01/14 00:20:34;;;;;;;;;;;;;;;;;;5016421;28;19914;-19
2022/01/14 00:23:00;;;;;;;;;;;;;;;;;;5016377;28;19920;-19
2022/01/14 00:33:28;;;;;;;;;;;;;;;;;;5016086;28;20079;-19
2022/01/14 00:35:54;;;;;;;;;;;;;;;;;;5016487;28;19974;-19
2022/01/14 00:38:20;;;;;;;;;;;;;;;;;;5015949;28;20356;-19
2022/01/14 00:40:45;;;;;;;;;;;;;;;;;;5015003;28;19913;-19
2022/01/14 00:43:11;;;;;;;;;;;;;;;;;;5015889;28;20344;-19
2022/01/14 00:45:37;;;;;;;;;;;;;;;;;;5016307;28;19940;-20
2022/01/14 00:48:03;;;;;;;;;;;;;;;;;;5015847;28;20259;-19
2022/01/14 00:50:29;;;;;;;;;;;;;;;;;;5015738;28;19927;-19
2022/01/14 00:52:55;;;;;;;;;;;;;;;;;;5015604;28;19909;-19
2022/01/14 00:55:39;;;;;;;;;;;;;;;;;;5015673;28;19921;-19
2022/01/14 01:00:50;;;;;;;;;;;;;;;;;;5015824;28;19920;-20
2022/01/14 01:03:16;;;;;;;;;;;;;;;;;;5015239;28;19921;-19
2022/01/14 01:05:42;;;;;;;;;;;;;;;;;;5015984;28;19958;-19
2022/01/14 01:08:11;;;;;;;;;;;;;;;;;;5015507;28;19909;-19
2022/01/14 01:10:46;;;;;;;;;;;;;;;;;;5014384;28;19917;-20
2022/01/14 01:13:23;;;;;;;;;;;;;;;;;;5015553;28;19920;-20
2022/01/14 01:15:49;;;;;;;;;;;;;;;;;;5014462;28;19917;-20
2022/01/14 01:18:16;;;;;;;;;;;;;;;;;;5015294;28;20312;-20
2022/01/14 01:20:42;;;;;;;;;;;;;;;;;;5015175;28;19924;-19
2022/01/14 01:23:08;;;;;;;;;;;;;;;;;;5015135;28;20356;-19
2022/01/14 01:25:41;;;;;;;;;;;;;;;;;;5015151;28;19920;-18
2022/01/14 01:28:07;;;;;;;;;;;;;;;;;;5015120;28;19913;-18
2022/01/14 01:32:59;;;;;;;;;;;;;;;;;;5015023;28;20007;-19
2022/01/14 01:35:25;;;;;;;;;;;;;;;;;;5014230;28;19913;-18
2022/01/14 01:37:51;;;;;;;;;;;;;;;;;;5015080;28;19917;-19
2022/01/14 01:40:19;;;;;;;;;;;;;;;;;;5015220;28;20253;-19
2022/01/14 01:42:45;;;;;;;;;;;;;;;;;;5014965;28;19909;-18
2022/01/14 01:45:12;;;;;;;;;;;;;;;;;;5015055;28;19929;-19
2022/01/14 01:47:38;;;;;;;;;;;;;;;;;;5015566;28;19945;-19
2022/01/14 01:50:04;;;;;;;;;;;;;;;;;;5015405;28;19917;-18
2022/01/14 01:52:30;;;;;;;;;;;;;;;;;;5015296;28;19910;-18
2022/01/14 01:54:56;;;;;;;;;;;;;;;;;;5014983;28;19949;-18
2022/01/14 01:57:22;;;;;;;;;;;;;;;;;;5014974;28;20314;-19
2022/01/14 01:59:48;;;;;;;;;;;;;;;;;;5014977;28;19913;-19
2022/01/14 02:02:14;;;;;;;;;;;;;;;;;;5015055;28;19913;-19
2022/01/14 02:04:40;;;;;;;;;;;;;;;;;;5014814;28;19929;-19
2022/01/14 02:07:06;;;;;;;;;;;;;;;;;;5014835;28;19913;-18
2022/01/14 02:09:32;;;;;;;;;;;;;;;;;;5014994;28;19918;-18
2022/01/14 02:11:58;;;;;;;;;;;;;;;;;;5014739;28;19913;-17
2022/01/14 02:17:28;;;;;;;;;;;;;;;;;;5014785;28;19918;-18
2022/01/14 02:22:09;;;;;;;;;;;;;;;;;;5015060;28;19984;-17
2022/01/14 02:22:40;;;;;;;;;;;;;;;;;;5014720;28;19996;-18
2022/01/14 02:25:07;;;;;;;;;;;;;;;;;;5014661;28;19913;-18
2022/01/14 02:27:33;;;;;;;;;;;;;;;;;;5014672;28;19909;-18
2022/01/14 02:29:59;;;;;;;;;;;;;;;;;;5015098;28;19974;-18
2022/01/14 02:32:25;;;;;;;;;;;;;;;;;;5014828;28;20253;-18
2022/01/14 02:34:51;;;;;;;;;;;;;;;;;;5014901;28;19952;-17
2022/01/14 02:37:20;;;;;;;;;;;;;;;;;;5014849;28;19952;-17
2022/01/14 02:39:46;;;;;;;;;;;;;;;;;;5014606;28;19921;-18
2022/01/14 02:42:11;;;;;;;;;;;;;;;;;;5014490;28;19914;-17
2022/01/14 02:44:38;;;;;;;;;;;;;;;;;;5014592;28;20344;-20
2022/01/14 02:47:05;;;;;;;;;;;;;;;;;;5015351;28;19913;-18
2022/01/14 02:49:33;;;;;;;;;;;;;;;;;;5018137;28;20023;-18
2022/01/14 02:51:59;;;;;;;;;;;;;;;;;;5018058;28;19924;-18
2022/01/14 02:54:30;;;;;;;;;;;;;;;;;;5018360;28;19914;-18
2022/01/14 02:56:56;;;;;;;;;;;;;;;;;;5018570;28;19913;-18
2022/01/14 02:59:22;;;;;;;;;;;;;;;;;;5018560;28;19910;-18
2022/01/14 03:01:48;;;;;;;;;;;;;;;;;;5018412;28;19922;-18
2022/01/14 03:04:14;;;;;;;;;;;;;;;;;;5017800;28;19958;-17
2022/01/14 03:06:40;;;;;;;;;;;;;;;;;;5016901;28;19997;-18
2022/01/14 03:09:06;;;;;;;;;;;;;;;;;;5018035;28;19928;-18
2022/01/14 03:11:32;;;;;;;;;;;;;;;;;;5017811;28;19914;-17
2022/01/14 03:13:58;;;;;;;;;;;;;;;;;;5017659;28;19984;-18
2022/01/14 03:16:24;;;;;;;;;;;;;;;;;;5017966;28;20252;-17
2022/01/14 03:18:53;;;;;;;;;;;;;;;;;;5018100;28;19945;-18
2022/01/14 03:21:33;;;;;;;;;;;;;;;;;;5017829;28;19937;-18
2022/01/14 03:24:03;;;;;;;;;;;;;;;;;;5017807;28;19941;-18
2022/01/14 03:26:29;;;;;;;;;;;;;;;;;;5017957;28;20416;-18
2022/01/14 03:28:55;;;;;;;;;;;;;;;;;;5017400;28;20020;-17
2022/01/14 03:31:21;;;;;;;;;;;;;;;;;;5017414;28;19971;-18
2022/01/14 03:33:47;;;;;;;;;;;;;;;;;;5017288;28;20016;-17
2022/01/14 03:36:13;;;;;;;;;;;;;;;;;;5017329;28;20260;-18
2022/01/14 03:38:39;;;;;;;;;;;;;;;;;;5017316;28;19935;-18
2022/01/14 03:41:05;;;;;;;;;;;;;;;;;;5017766;28;19913;-18
2022/01/14 03:43:31;;;;;;;;;;;;;;;;;;5017112;28;19940;-18
2022/01/14 03:45:57;;;;;;;;;;;;;;;;;;5017380;28;19917;-18
2022/01/14 03:48:23;;;;;;;;;;;;;;;;;;5017302;28;19909;-18
2022/01/14 03:50:49;;;;;;;;;;;;;;;;;;5017335;28;19924;-17
2022/01/14 03:53:15;;;;;;;;;;;;;;;;;;5017319;28;20283;-18
2022/01/14 03:55:41;;;;;;;;;;;;;;;;;;5017475;28;20256;-18
2022/01/14 03:58:07;;;;;;;;;;;;;;;;;;5016433;28;19914;-18
2022/01/14 04:00:33;;;;;;;;;;;;;;;;;;5016400;28;19913;-17
2022/01/14 04:02:59;;;;;;;;;;;;;;;;;;5016595;28;20260;-17
2022/01/14 04:05:25;;;;;;;;;;;;;;;;;;5016739;28;19959;-18
2022/01/14 04:07:51;;;;;;;;;;;;;;;;;;5016791;28;20289;-18
2022/01/14 04:10:18;;;;;;;;;;;;;;;;;;5016625;28;19928;-18
2022/01/14 04:12:49;;;;;;;;;;;;;;;;;;5016539;28;19976;-18
2022/01/14 04:17:59;;;;;;;;;;;;;;;;;;5016626;28;20055;-18
2022/01/14 04:20:25;;;;;;;;;;;;;;;;;;5016750;28;20356;-18
2022/01/14 04:22:52;;;;;;;;;;;;;;;;;;5016402;28;19956;-18
2022/01/14 04:25:18;;;;;;;;;;;;;;;;;;5016436;28;19917;-17
2022/01/14 04:27:43;;;;;;;;;;;;;;;;;;5016290;28;19914;-17
2022/01/14 04:30:09;;;;;;;;;;;;;;;;;;5015253;28;20334;-17
2022/01/14 04:32:35;;;;;;;;;;;;;;;;;;5016140;28;19949;-19
2022/01/14 04:35:01;;;;;;;;;;;;;;;;;;5015223;28;20356;-18
2022/01/14 04:37:27;;;;;;;;;;;;;;;;;;5016099;28;19917;-18
2022/01/14 04:39:53;;;;;;;;;;;;;;;;;;5016571;28;19909;-18
2022/01/14 04:42:19;;;;;;;;;;;;;;;;;;5015919;28;20400;-19
2022/01/14 04:44:45;;;;;;;;;;;;;;;;;;5016007;28;19960;-18
2022/01/14 04:47:30;;;;;;;;;;;;;;;;;;5015864;28;19917;-17
2022/01/14 04:49:56;;;;;;;;;;;;;;;;;;5016281;28;20012;-18
2022/01/14 04:52:22;;;;;;;;;;;;;;;;;;5016002;28;19914;-18
2022/01/14 04:54:48;;;;;;;;;;;;;;;;;;5015858;28;19940;-18
2022/01/14 04:57:16;;;;;;;;;;;;;;;;;;5015899;28;20260;-18
2022/01/14 04:59:44;;;;;;;;;;;;;;;;;;5015587;28;19914;-18
2022/01/14 05:02:10;;;;;;;;;;;;;;;;;;5014442;28;19913;-18
2022/01/14 05:04:36;;;;;;;;;;;;;;;;;;5015440;28;19996;-18
2022/01/14 05:07:03;;;;;;;;;;;;;;;;;;5015514;28;20341;-18
2022/01/14 05:09:38;;;;;;;;;;;;;;;;;;5015329;28;19913;-18
2022/01/14 05:12:10;;;;;;;;;;;;;;;;;;5015598;28;20004;-18
2022/01/14 05:14:36;;;;;;;;;;;;;;;;;;5014933;28;19914;-19
2022/01/14 05:17:02;;;;;;;;;;;;;;;;;;5015177;28;19949;-19
2022/01/14 05:19:28;;;;;;;;;;;;;;;;;;5015189;28;20256;-19
2022/01/14 05:21:54;;;;;;;;;;;;;;;;;;5015075;28;20001;-20
2022/01/14 05:24:20;;;;;;;;;;;;;;;;;;5015211;28;20308;-19
2022/01/14 05:26:46;;;;;;;;;;;;;;;;;;5014014;28;19914;-19
2022/01/14 05:29:12;;;;;;;;;;;;;;;;;;5015052;28;19990;-19
2022/01/14 05:31:39;;;;;;;;;;;;;;;;;;5014942;28;20315;-18
2022/01/14 05:34:05;;;;;;;;;;;;;;;;;;5013712;28;20000;-18
2022/01/14 05:36:31;;;;;;;;;;;;;;;;;;5015300;28;20186;-18
2022/01/14 05:38:57;;;;;;;;;;;;;;;;;;5014824;28;19960;-19
2022/01/14 05:41:30;;;;;;;;;;;;;;;;;;5014779;28;20003;-19
2022/01/14 05:43:56;;;;;;;;;;;;;;;;;;5014686;28;19913;-19
2022/01/14 05:46:22;;;;;;;;;;;;;;;;;;5014731;28;20008;-19
2022/01/14 05:48:48;;;;;;;;;;;;;;;;;;5013624;28;19925;-18
2022/01/14 05:51:14;;;;;;;;;;;;;;;;;;5014847;28;19910;-20
2022/01/14 05:53:40;;;;;;;;;;;;;;;;;;5014538;28;19914;-19
2022/01/14 05:56:06;;;;;;;;;;;;;;;;;;5014689;28;19979;-20
2022/01/14 05:58:32;;;;;;;;;;;;;;;;;;5014704;28;19957;-19
2022/01/14 06:00:58;;;;;;;;;;;;;;;;;;5014550;28;19955;-18
2022/01/14 06:03:24;;;;;;;;;;;;;;;;;;5014171;28;19917;-19
2022/01/14 06:05:50;;;;;;;;;;;;;;;;;;5014931;28;19914;-18
2022/01/14 06:08:16;;;;;;;;;;;;;;;;;;5014628;28;19909;-20
2022/01/14 06:10:43;;;;;;;;;;;;;;;;;;5015156;28;19918;-19
2022/01/14 06:13:09;;;;;;;;;;;;;;;;;;5014690;28;19910;-19
2022/01/14 06:15:35;;;;;;;;;;;;;;;;;;5014357;28;19913;-18
2022/01/14 06:18:01;;;;;;;;;;;;;;;;;;5015000;28;19929;-19
2022/01/14 06:20:27;;;;;;;;;;;;;;;;;;5014337;28;19913;-18
2022/01/14 06:22:53;;;;;;;;;;;;;;;;;;5016656;28;19914;-19
2022/01/14 06:25:20;;;;;;;;;;;;;;;;;;5017392;28;19909;-19
2022/01/14 06:27:46;;;;;;;;;;;;;;;;;;5017313;28;19920;-20
2022/01/14 06:30:12;;;;;;;;;;;;;;;;;;5018530;28;19929;-19
2022/01/14 06:32:41;;;;;;;;;;;;;;;;;;5018533;28;19920;-19
2022/01/14 06:35:07;;;;;;;;;;;;;;;;;;5018093;28;19913;-20
2022/01/14 06:37:33;;;;;;;;;;;;;;;;;;5018231;28;19913;-19
2022/01/14 06:39:59;;;;;;;;;;;;;;;;;;5018059;28;19959;-18
2022/01/14 06:42:25;;;;;;;;;;;;;;;;;;5018306;28;19914;-18
2022/01/14 06:44:51;;;;;;;;;;;;;;;;;;5017780;28;19921;-18
2022/01/14 06:47:18;;;;;;;;;;;;;;;;;;5018336;28;19913;-20
2022/01/14 06:49:44;;;;;;;;;;;;;;;;;;5017754;28;19917;-20
2022/01/14 06:52:10;;;;;;;;;;;;;;;;;;5017727;28;19909;-19
2022/01/14 06:54:36;;;;;;;;;;;;;;;;;;5017736;28;20302;-19
2022/01/14 06:57:02;;;;;;;;;;;;;;;;;;5017810;28;19921;-19
2022/01/14 06:59:28;;;;;;;;;;;;;;;;;;5017981;28;20060;-20
2022/01/14 07:01:54;;;;;;;;;;;;;;;;;;5017493;28;19971;-19
2022/01/14 07:04:20;;;;;;;;;;;;;;;;;;5017433;28;19921;-20
2022/01/14 07:06:47;;;;;;;;;;;;;;;;;;5018091;28;19992;-18
2022/01/14 07:09:13;;;;;;;;;;;;;;;;;;5017591;28;20186;-18
2022/01/14 07:11:40;;;;;;;;;;;;;;;;;;5017084;28;19910;-19
2022/01/14 07:14:06;;;;;;;;;;;;;;;;;;5016999;28;19917;-18
2022/01/14 07:16:33;;;;;;;;;;;;;;;;;;5017590;28;20327;-19
2022/01/14 07:19:03;;;;;;;;;;;;;;;;;;5016979;28;20245;-18
2022/01/14 07:21:30;;;;;;;;;;;;;;;;;;5015677;28;20360;-19
2022/01/14 07:23:56;;;;;;;;;;;;;;;;;;5015746;28;19910;-18
2022/01/14 07:26:22;;;;;;;;;;;;;;;;;;5015805;28;20277;-19
2022/01/14 07:28:48;;;;;;;;;;;;;;;;;;5017297;28;20000;-19
2022/01/14 07:31:14;;;;;;;;;;;;;;;;;;5016752;28;20217;-19
2022/01/14 07:33:42;;;;;;;;;;;;;;;;;;5015515;28;20296;-18
2022/01/14 07:36:08;;;;;;;;;;;;;;;;;;5015564;28;19913;-19
2022/01/14 07:38:34;;;;;;;;;;;;;;;;;;5016846;28;19924;-20
2022/01/14 07:41:03;;;;;;;;;;;;;;;;;;5017164;28;19955;-18
2022/01/14 07:43:31;;;;;;;;;;;;;;;;;;5017033;28;19913;-19
2022/01/14 07:45:57;;;;;;;;;;;;;;;;;;5015950;28;19914;-19
2022/01/14 07:48:23;;;;;;;;;;;;;;;;;;5016961;28;20021;-19
2022/01/14 07:50:51;;;;;;;;;;;;;;;;;;5016775;28;19917;-18
2022/01/14 07:53:17;;;;;;;;;;;;;;;;;;5017154;28;19955;-24
2022/01/14 07:55:44;;;;;;;;;;;;;;;;;;5016650;28;20299;-20
2022/01/14 07:58:11;;;;;;;;;;;;;;;;;;5016564;28;20375;-18
2022/01/14 08:00:37;;;;;;;;;;;;;;;;;;5015717;28;20269;-19
2022/01/14 08:03:05;;;;;;;;;;;;;;;;;;5015509;28;19909;-19
2022/01/14 08:05:32;;;;;;;;;;;;;;;;;;5016280;28;19925;-19
2022/01/14 08:08:03;;;;;;;;;;;;;;;;;;5016800;28;19917;-20
2022/01/14 08:10:30;;;;;;;;;;;;;;;;;;5016067;28;19929;-19
2022/01/14 08:12:59;;;;;;;;;;;;;;;;;;5016372;28;19960;-19
2022/01/14 08:15:26;;;;;;;;;;;;;;;;;;5016288;28;19943;-18
2022/01/14 08:17:53;;;;;;;;;;;;;;;;;;5016414;28;20006;-18
2022/01/14 08:20:19;;;;;;;;;;;;;;;;;;5015168;28;19914;-19
2022/01/14 08:22:46;;;;;;;;;;;;;;;;;;5016611;28;19910;-18
2022/01/14 08:25:12;;;;;;;;;;;;;;;;;;5016253;28;19927;-19
2022/01/14 08:27:38;;;;;;;;;;;;;;;;;;5016859;28;19945;-18
2022/01/14 08:30:04;;;;;;;;;;;;;;;;;;5016049;28;19913;-18
2022/01/14 08:32:31;;;;;;;;;;;;;;;;;;5015998;28;19937;-18
2022/01/14 08:34:58;;;;;;;;;;;;;;;;;;5016404;28;19913;-18
2022/01/14 08:37:24;;;;;;;;;;;;;;;;;;5015885;28;19941;-17
2022/01/14 08:39:50;;;;;;;;;;;;;;;;;;5015839;28;19920;-18
2022/01/14 08:42:17;;;;;;;;;;;;;;;;;;5015717;28;19909;-18
2022/01/14 08:44:43;;;;;;;;;;;;;;;;;;5015516;28;19913;-18
2022/01/14 08:47:09;;;;;;;;;;;;;;;;;;5015725;28;19913;-18
2022/01/14 08:49:36;;;;;;;;;;;;;;;;;;5014534;28;19918;-17
2022/01/14 08:52:03;;;;;;;;;;;;;;;;;;5016238;28;19909;-19
2022/01/14 08:54:29;;;;;;;;;;;;;;;;;;5015638;28;20356;-18
2022/01/14 08:56:56;;;;;;;;;;;;;;;;;;5015557;28;19910;-18
2022/01/14 08:59:24;;;;;;;;;;;;;;;;;;5015372;28;19913;-17
2022/01/14 09:04:39;;;;;;;;;;;;;;;;;;5015347;28;19936;-18
2022/01/14 09:07:05;;;;;;;;;;;;;;;;;;5015929;28;19914;-18
2022/01/14 09:09:31;;;;;;;;;;;;;;;;;;5015359;28;19913;-18
2022/01/14 09:11:57;;;;;;;;;;;;;;;;;;5015357;28;19913;-18
2022/01/14 09:14:27;;;;;;;;;;;;;;;;;;5015670;28;20000;-18
2022/01/14 09:16:56;;;;;;;;;;;;;;;;;;5015780;28;19948;-19
2022/01/14 09:19:22;;;;;;;;;;;;;;;;;;5014860;28;19928;-17
2022/01/14 09:21:48;;;;;;;;;;;;;;;;;;5015063;28;20343;-18
2022/01/14 09:24:14;;;;;;;;;;;;;;;;;;5015142;28;20257;-18
2022/01/14 09:26:42;;;;;;;;;;;;;;;;;;5015490;28;19913;-18
2022/01/14 09:29:09;;;;;;;;;;;;;;;;;;5013999;28;20336;-18
2022/01/14 09:31:35;;;;;;;;;;;;;;;;;;5015450;28;20000;-18
2022/01/14 09:34:02;;;;;;;;;;;;;;;;;;5013790;28;20410;-18
2022/01/14 09:36:28;;;;;;;;;;;;;;;;;;5014942;28;19910;-18
2022/01/14 09:38:55;;;;;;;;;;;;;;;;;;5013985;28;19914;-18
2022/01/14 09:41:21;;;;;;;;;;;;;;;;;;5014855;28;19940;-18
2022/01/14 09:43:47;;;;;;;;;;;;;;;;;;5014873;28;19929;-18
2022/01/14 09:46:16;;;;;;;;;;;;;;;;;;5014883;28;19916;-18
2022/01/14 09:48:42;;;;;;;;;;;;;;;;;;5015347;28;19914;-18
2022/01/14 09:51:08;;;;;;;;;;;;;;;;;;5014859;28;20336;-18
2022/01/14 09:53:36;;;;;;;;;;;;;;;;;;5014551;28;20271;-17
2022/01/14 09:56:02;;;;;;;;;;;;;;;;;;5013998;28;19910;-20
2022/01/14 09:58:36;;;;;;;;;;;;;;;;;;5014605;28;19957;-17
2022/01/14 10:01:02;;;;;;;;;;;;;;;;;;5014477;28;19917;-19
2022/01/14 10:03:31;;;;;;;;;;;;;;;;;;5014209;28;19988;-18
2022/01/14 10:05:58;;;;;;;;;;;;;;;;;;5014387;28;19909;-17
2022/01/14 10:08:25;;;;;;;;;;;;;;;;;;5014354;28;20018;-18
2022/01/14 10:10:54;;;;;;;;;;;;;;;;;;5014121;28;19921;-17
2022/01/14 10:13:22;;;;;;;;;;;;;;;;;;5014107;28;19914;-16
2022/01/14 10:15:48;;;;;;;;;;;;;;;;;;5014755;28;20337;-18
2022/01/14 10:18:14;;;;;;;;;;;;;;;;;;5013157;28;19933;-17
2022/01/14 10:20:41;;;;;;;;;;;;;;;;;;5014093;28;19921;-17
2022/01/14 10:23:08;;;;;;;;;;;;;;;;;;5013973;28;20004;-17
2022/01/14 10:25:35;;;;;;;;;;;;;;;;;;5014171;28;19917;-17
2022/01/14 10:28:02;;;;;;;;;;;;;;;;;;5014155;28;19952;-17
2022/01/14 10:30:28;;;;;;;;;;;;;;;;;;5014302;28;19922;-19
2022/01/14 10:32:56;;;;;;;;;;;;;;;;;;5014111;28;19913;-18
2022/01/14 10:35:22;;;;;;;;;;;;;;;;;;5013071;28;19925;-18
2022/01/14 10:37:48;;;;;;;;;;;;;;;;;;5014386;28;19975;-18
2022/01/14 10:40:15;;;;;;;;;;;;;;;;;;5014185;28;19925;-18
2022/01/14 10:42:42;;;;;;;;;;;;;;;;;;5014309;28;20345;-17
2022/01/14 10:45:08;;;;;;;;;;;;;;;;;;5014419;28;19913;-17
2022/01/14 10:47:34;;;;;;;;;;;;;;;;;;5014917;28;19916;-18
2022/01/14 10:50:00;;;;;;;;;;;;;;;;;;5014260;28;19973;-18
2022/01/14 10:52:26;;;;;;;;;;;;;;;;;;5014619;28;19913;-18
2022/01/14 10:54:52;;;;;;;;;;;;;;;;;;5013210;28;19924;-17
2022/01/14 10:57:18;;;;;;;;;;;;;;;;;;5014694;28;19913;-17
2022/01/14 10:59:45;;;;;;;;;;;;;;;;;;5013919;28;19913;-17
2022/01/14 11:02:11;;;;;;;;;;;;;;;;;;5014129;28;19915;-18
2022/01/14 11:04:39;;;;;;;;;;;;;;;;;;5011952;28;19928;-18
2022/01/14 11:07:05;;;;;;;;;;;;;;;;;;5014501;28;19914;-18
2022/01/14 11:09:33;;;;;;;;;;;;;;;;;;5016182;28;19921;-17
2022/01/14 11:12:02;;;;;;;;;;;;;;;;;;5017491;28;19963;-17
2022/01/14 11:14:28;;;;;;;;;;;;;;;;;;5017790;28;20332;-18
2022/01/14 11:16:55;;;;;;;;;;;;;;;;;;5016422;28;19913;-18
2022/01/14 11:19:22;;;;;;;;;;;;;;;;;;5016404;28;19928;-18
2022/01/14 11:24:37;;;;;;;;;;;;;;;;;;5017252;28;19916;-18
2022/01/14 11:27:04;;;;;;;;;;;;;;;;;;5016039;28;19914;-18
2022/01/14 11:29:30;;;;;;;;;;;;;;;;;;5017192;28;19918;-18
2022/01/14 11:31:58;;;;;;;;;;;;;;;;;;5017460;28;19913;-18
2022/01/14 11:34:24;;;;;;;;;;;;;;;;;;5017163;28;20349;-17
2022/01/14 11:36:50;;;;;;;;;;;;;;;;;;5017185;28;19909;-17
2022/01/14 11:39:16;;;;;;;;;;;;;;;;;;5016186;28;20000;-18
2022/01/14 11:41:42;;;;;;;;;;;;;;;;;;5016236;28;19996;-18
2022/01/14 11:44:10;;;;;;;;;;;;;;;;;;5015932;28;19925;-18
2022/01/14 11:46:36;;;;;;;;;;;;;;;;;;5016849;28;19910;-18
2022/01/14 11:49:03;;;;;;;;;;;;;;;;;;5016693;28;19917;-17
2022/01/14 11:51:29;;;;;;;;;;;;;;;;;;5016891;28;19920;-18
2022/01/14 11:53:55;;;;;;;;;;;;;;;;;;5016753;28;20296;-18
2022/01/14 11:56:23;;;;;;;;;;;;;;;;;;5017240;28;19971;-18
2022/01/14 11:58:50;;;;;;;;;;;;;;;;;;5016760;28;19975;-18
2022/01/14 12:01:16;;;;;;;;;;;;;;;;;;5016716;28;19971;-18
2022/01/14 12:03:44;;;;;;;;;;;;;;;;;;5016081;28;19909;-18
2022/01/14 12:06:12;;;;;;;;;;;;;;;;;;5017252;28;19913;-16
2022/01/14 12:08:42;;;;;;;;;;;;;;;;;;5016510;28;19913;-18
2022/01/14 12:11:09;;;;;;;;;;;;;;;;;;5016343;28;19914;-18
2022/01/14 12:16:04;;;;;;;;;;;;;;;;;;5016428;28;19921;-17
2022/01/14 12:18:33;;;;;;;;;;;;;;;;;;5016345;28;19963;-18
2022/01/14 12:21:00;;;;;;;;;;;;;;;;;;5015116;28;19913;-18
2022/01/14 12:23:27;;;;;;;;;;;;;;;;;;5015648;28;20268;-17
2022/01/14 12:25:53;;;;;;;;;;;;;;;;;;5015755;28;20015;-18
2022/01/14 12:28:19;;;;;;;;;;;;;;;;;;5015735;28;20343;-18
2022/01/14 12:30:45;;;;;;;;;;;;;;;;;;5015668;28;19917;-18
2022/01/14 12:33:11;;;;;;;;;;;;;;;;;;5016224;28;19941;-17
2022/01/14 12:35:39;;;;;;;;;;;;;;;;;;5015440;28;19920;-18
2022/01/14 12:38:06;;;;;;;;;;;;;;;;;;5015599;28;19914;-19
2022/01/14 12:40:36;;;;;;;;;;;;;;;;;;5015763;28;19909;-17
2022/01/14 12:43:03;;;;;;;;;;;;;;;;;;5015885;28;20314;-17
2022/01/14 12:45:29;;;;;;;;;;;;;;;;;;5016034;28;19914;-18
2022/01/14 12:47:58;;;;;;;;;;;;;;;;;;5015918;28;19929;-17
2022/01/14 12:50:25;;;;;;;;;;;;;;;;;;5014678;28;19979;-18
2022/01/14 12:52:53;;;;;;;;;;;;;;;;;;5014630;28;19910;-18
2022/01/14 12:55:19;;;;;;;;;;;;;;;;;;5016214;28;19971;-18
2022/01/14 12:57:45;;;;;;;;;;;;;;;;;;5015652;28;20017;-18
2022/01/14 13:00:11;;;;;;;;;;;;;;;;;;5015341;28;20004;-18
2022/01/14 13:02:37;;;;;;;;;;;;;;;;;;5015389;28;19913;-18
2022/01/14 13:05:04;;;;;;;;;;;;;;;;;;5015315;28;19921;-18
2022/01/14 13:07:30;;;;;;;;;;;;;;;;;;5015509;28;19929;-17
2022/01/14 13:09:57;;;;;;;;;;;;;;;;;;5015971;28;20340;-19
2022/01/14 13:12:28;;;;;;;;;;;;;;;;;;5015368;28;19975;-17
2022/01/14 13:15:00;;;;;;;;;;;;;;;;;;5014688;28;20363;-18
2022/01/14 13:17:27;;;;;;;;;;;;;;;;;;5015411;28;19914;-17
2022/01/14 13:19:54;;;;;;;;;;;;;;;;;;5015163;28;19909;-18
2022/01/14 13:22:20;;;;;;;;;;;;;;;;;;5015362;28;20340;-17
2022/01/14 13:24:48;;;;;;;;;;;;;;;;;;5013860;28;20318;-20
2022/01/14 13:27:17;;;;;;;;;;;;;;;;;;5014818;28;20352;-18
2022/01/14 13:29:43;;;;;;;;;;;;;;;;;;5013618;28;20288;-18
2022/01/14 13:32:10;;;;;;;;;;;;;;;;;;5014523;28;20345;-18
2022/01/14 13:34:37;;;;;;;;;;;;;;;;;;5014581;28;19913;-17
2022/01/14 13:37:03;;;;;;;;;;;;;;;;;;5014755;28;19917;-18
2022/01/14 13:39:30;;;;;;;;;;;;;;;;;;5014478;28;20265;-17
2022/01/14 13:41:56;;;;;;;;;;;;;;;;;;5014581;28;20398;-19
2022/01/14 13:47:14;;;;;;;;;;;;;;;;;;5015082;28;19924;-18
2022/01/14 13:49:40;;;;;;;;;;;;;;;;;;5014879;28;19918;-17
2022/01/14 13:52:07;;;;;;;;;;;;;;;;;;5014762;28;20008;-18
2022/01/14 13:54:34;;;;;;;;;;;;;;;;;;5014840;28;20011;-18
2022/01/14 13:57:00;;;;;;;;;;;;;;;;;;5015181;28;20324;-18
2022/01/14 13:59:28;;;;;;;;;;;;;;;;;;5014549;28;19913;-18
2022/01/14 14:01:58;;;;;;;;;;;;;;;;;;5014471;28;19976;-17
2022/01/14 14:04:26;;;;;;;;;;;;;;;;;;5014454;28;19983;-18
2022/01/14 14:06:57;;;;;;;;;;;;;;;;;;5015096;28;19913;-17
2022/01/14 14:09:31;;;;;;;;;;;;;;;;;;5014690;28;20008;-17
2022/01/14 14:16:56;;;;;;;;;;;;;;;;;;5014690;28;19914;-17
2022/01/14 14:19:22;;;;;;;;;;;;;;;;;;5014827;28;20367;-17
2022/01/14 14:21:48;;;;;;;;;;;;;;;;;;5014933;28;20307;-17
2022/01/14 14:24:15;;;;;;;;;;;;;;;;;;5014879;28;19909;-18
2022/01/14 14:26:43;;;;;;;;;;;;;;;;;;5014668;28;19940;-18
2022/01/14 14:29:09;;;;;;;;;;;;;;;;;;5014478;28;20225;-18
2022/01/14 14:31:36;;;;;;;;;;;;;;;;;;5014834;28;20333;-18
2022/01/14 14:34:01;;;;;;;;;;;;;;;;;;5014342;28;20010;-18
2022/01/14 14:36:30;;;;;;;;;;;;;;;;;;5014297;28;19913;-18
2022/01/14 14:38:56;;;;;;;;;;;;;;;;;;5014243;28;20028;-18
2022/01/14 14:41:22;;;;;;;;;;;;;;;;;;5014190;28;19975;-18
2022/01/14 14:43:48;;;;;;;;;;;;;;;;;;5015336;28;19914;-18
2022/01/14 14:46:14;;;;;;;;;;;;;;;;;;5017935;28;20307;-18
2022/01/14 14:48:40;;;;;;;;;;;;;;;;;;5018029;28;19914;-18
2022/01/14 14:51:06;;;;;;;;;;;;;;;;;;5018053;28;19924;-18
2022/01/14 14:53:32;;;;;;;;;;;;;;;;;;5018489;28;19921;-18
2022/01/14 14:55:58;;;;;;;;;;;;;;;;;;5018018;28;19921;-18
2022/01/14 14:58:24;;;;;;;;;;;;;;;;;;5017011;28;20244;-18
2022/01/14 15:00:52;;;;;;;;;;;;;;;;;;5018129;28;20006;-17
2022/01/14 15:03:18;;;;;;;;;;;;;;;;;;5017835;28;20305;-18
2022/01/14 15:05:44;;;;;;;;;;;;;;;;;;5017561;28;19952;-18
2022/01/14 15:08:10;;;;;;;;;;;;;;;;;;5017802;28;19949;-17
2022/01/14 15:10:36;;;;;;;;;;;;;;;;;;5017580;28;19917;-18
2022/01/14 15:13:03;;;;;;;;;;;;;;;;;;5017726;28;19913;-17
2022/01/14 15:15:37;;;;;;;;;;;;;;;;;;5018306;28;19913;-18
2022/01/14 15:20:32;;;;;;;;;;;;;;;;;;5017555;28;19917;-18
2022/01/14 15:22:58;;;;;;;;;;;;;;;;;;5017648;28;19909;-18
2022/01/14 15:25:24;;;;;;;;;;;;;;;;;;5017391;28;19921;-19
2022/01/14 15:27:50;;;;;;;;;;;;;;;;;;5017469;28;19944;-18
2022/01/14 15:30:16;;;;;;;;;;;;;;;;;;5017117;28;19928;-17
2022/01/14 15:32:42;;;;;;;;;;;;;;;;;;5017147;28;20000;-17
2022/01/14 15:35:08;;;;;;;;;;;;;;;;;;5017664;28;19920;-17
2022/01/14 15:37:34;;;;;;;;;;;;;;;;;;5017514;28;19909;-19
2022/01/14 15:40:05;;;;;;;;;;;;;;;;;;5017581;28;19914;-18
2022/01/14 15:42:31;;;;;;;;;;;;;;;;;;5017069;28;20337;-18
2022/01/14 15:44:57;;;;;;;;;;;;;;;;;;5016022;28;19992;-18
2022/01/14 15:47:23;;;;;;;;;;;;;;;;;;5017052;28;20004;-18
2022/01/14 15:49:49;;;;;;;;;;;;;;;;;;5016900;28;19940;-17
2022/01/14 15:52:15;;;;;;;;;;;;;;;;;;5015703;28;19914;-18
2022/01/14 15:54:41;;;;;;;;;;;;;;;;;;5015399;28;19996;-20
2022/01/14 15:57:08;;;;;;;;;;;;;;;;;;5016404;28;19979;-18
2022/01/14 15:59:34;;;;;;;;;;;;;;;;;;5016886;28;19921;-18
2022/01/14 16:02:00;;;;;;;;;;;;;;;;;;5016372;28;20264;-18
2022/01/14 16:04:26;;;;;;;;;;;;;;;;;;5016003;28;19953;-18
2022/01/14 16:06:52;;;;;;;;;;;;;;;;;;5017945;28;19929;-18
2022/01/14 16:09:18;;;;;;;;;;;;;;;;;;5016367;28;20333;-18
2022/01/14 16:11:45;;;;;;;;;;;;;;;;;;5016449;28;19933;-17
2022/01/14 16:14:22;;;;;;;;;;;;;;;;;;5015897;28;19918;-18
2022/01/14 16:16:51;;;;;;;;;;;;;;;;;;5015924;28;19917;-18
2022/01/14 16:19:17;;;;;;;;;;;;;;;;;;5015997;28;20264;-15
2022/01/14 16:21:43;;;;;;;;;;;;;;;;;;5016179;28;20323;-18
2022/01/14 16:24:10;;;;;;;;;;;;;;;;;;5016199;28;19910;-18
2022/01/14 16:26:36;;;;;;;;;;;;;;;;;;5016611;28;19921;-18
2022/01/14 16:29:02;;;;;;;;;;;;;;;;;;5016318;28;19913;-18
2022/01/14 16:31:28;;;;;;;;;;;;;;;;;;5016621;28;19987;-18
2022/01/14 16:33:54;;;;;;;;;;;;;;;;;;5016148;28;19913;-17
2022/01/14 16:36:22;;;;;;;;;;;;;;;;;;5016438;28;19934;-17
2022/01/14 16:38:48;;;;;;;;;;;;;;;;;;5016050;28;19917;-18
2022/01/14 16:41:14;;;;;;;;;;;;;;;;;;5016052;28;20312;-17
2022/01/14 16:43:41;;;;;;;;;;;;;;;;;;5016069;28;19921;-18
2022/01/14 16:46:07;;;;;;;;;;;;;;;;;;5016415;28;19914;-17
2022/01/14 16:48:33;;;;;;;;;;;;;;;;;;5015949;28;19920;-17
2022/01/14 16:50:59;;;;;;;;;;;;;;;;;;5015774;28;19917;-18
2022/01/14 16:53:30;;;;;;;;;;;;;;;;;;5015789;28;19932;-18
2022/01/14 16:55:56;;;;;;;;;;;;;;;;;;5015681;28;19917;-17
2022/01/14 16:58:22;;;;;;;;;;;;;;;;;;5016051;28;19914;-18
2022/01/14 17:00:48;;;;;;;;;;;;;;;;;;5015662;28;19913;-18
2022/01/14 17:03:14;;;;;;;;;;;;;;;;;;5015716;28;19976;-17
2022/01/14 17:05:40;;;;;;;;;;;;;;;;;;5014133;28;19914;-18
2022/01/14 17:08:06;;;;;;;;;;;;;;;;;;5014497;28;19952;-18
2022/01/14 17:10:32;;;;;;;;;;;;;;;;;;5016255;28;20321;-18
2022/01/14 17:12:58;;;;;;;;;;;;;;;;;;5015597;28;19917;-18
2022/01/14 17:15:24;;;;;;;;;;;;;;;;;;5014487;28;19913;-18
2022/01/14 17:17:50;;;;;;;;;;;;;;;;;;5015708;28;19976;-18
2022/01/14 17:20:16;;;;;;;;;;;;;;;;;;5015539;28;20108;-18